sensor_id;sensor_type;location;lat;lon;timestamp;P1;durP1;ratioP1;P2;durP2;ratioP2
52740;SDS011;38634;52.138;9.912;2022-09-12T00:01:35;8.68;;;2.70;;
52740;SDS011;38634;52.138;9.912;2022-09-12T00:04:20;12.80;;;3.67;;
52740;SDS011;38634;52.138;9.912;2022-09-12T00:07:04;12.48;;;3.67;;
52740;SDS011;38634;52.138;9.912;2022-09-12T00:09:49;13.23;;;3.47;;
52740;SDS011;38634;52.138;9.912;2022-09-12T00:12:34;12.30;;;3.25;;
52740;SDS011;38634;52.138;9.912;2022-09-12T00:15:19;12.43;;;3.42;;
52740;SDS011;38634;52.138;9.912;2022-09-12T00:18:04;13.00;;;3.17;;
52740;SDS011;38634;52.138;9.912;2022-09-12T00:20:49;11.77;;;3.55;;
52740;SDS011;38634;52.138;9.912;2022-09-12T00:23:33;15.52;;;4.55;;
52740;SDS011;38634;52.138;9.912;2022-09-12T00:26:19;13.07;;;3.38;;
52740;SDS011;38634;52.138;9.912;2022-09-12T00:29:04;12.63;;;3.50;;
52740;SDS011;38634;52.138;9.912;2022-09-12T00:31:49;9.98;;;2.97;;
52740;SDS011;38634;52.138;9.912;2022-09-12T00:34:33;13.77;;;3.75;;
52740;SDS011;38634;52.138;9.912;2022-09-12T00:37:19;13.82;;;3.83;;
52740;SDS011;38634;52.138;9.912;2022-09-12T00:40:04;13.90;;;3.42;;
52740;SDS011;38634;52.138;9.912;2022-09-12T00:42:49;14.25;;;3.90;;
52740;SDS011;38634;52.138;9.912;2022-09-12T00:45:33;14.80;;;3.33;;
52740;SDS011;38634;52.138;9.912;2022-09-12T00:48:21;18.02;;;3.65;;
52740;SDS011;38634;52.138;9.912;2022-09-12T00:51:13;24.48;;;5.85;;
52740;SDS011;38634;52.138;9.912;2022-09-12T00:53:59;17.13;;;3.55;;
52740;SDS011;38634;52.138;9.912;2022-09-12T00:56:52;16.60;;;3.60;;
52740;SDS011;38634;52.138;9.912;2022-09-12T00:59:42;16.58;;;3.38;;
52740;SDS011;38634;52.138;9.912;2022-09-12T01:02:40;12.68;;;2.72;;
52740;SDS011;38634;52.138;9.912;2022-09-12T01:05:27;15.75;;;3.40;;
52740;SDS011;38634;52.138;9.912;2022-09-12T01:08:13;16.77;;;3.30;;
52740;SDS011;38634;52.138;9.912;2022-09-12T01:10:58;19.60;;;3.90;;
52740;SDS011;38634;52.138;9.912;2022-09-12T01:13:43;14.95;;;3.55;;
52740;SDS011;38634;52.138;9.912;2022-09-12T01:16:28;9.73;;;2.50;;
52740;SDS011;38634;52.138;9.912;2022-09-12T01:29:02;14.35;;;3.28;;
52740;SDS011;38634;52.138;9.912;2022-09-12T01:32:20;9.80;;;2.28;;
52740;SDS011;38634;52.138;9.912;2022-09-12T01:35:27;14.93;;;3.38;;
52740;SDS011;38634;52.138;9.912;2022-09-12T01:38:37;13.45;;;3.33;;
52740;SDS011;38634;52.138;9.912;2022-09-12T01:44:43;13.20;;;3.17;;
52740;SDS011;38634;52.138;9.912;2022-09-12T01:47:43;12.50;;;3.15;;
52740;SDS011;38634;52.138;9.912;2022-09-12T01:51:12;21.95;;;5.15;;
52740;SDS011;38634;52.138;9.912;2022-09-12T01:54:15;15.85;;;4.07;;
52740;SDS011;38634;52.138;9.912;2022-09-12T01:57:08;16.33;;;3.42;;
52740;SDS011;38634;52.138;9.912;2022-09-12T02:00:00;16.38;;;4.32;;
52740;SDS011;38634;52.138;9.912;2022-09-12T02:05:53;10.20;;;2.72;;
52740;SDS011;38634;52.138;9.912;2022-09-12T02:08:56;15.55;;;3.45;;
52740;SDS011;38634;52.138;9.912;2022-09-12T02:11:46;17.55;;;3.63;;
52740;SDS011;38634;52.138;9.912;2022-09-12T02:14:36;16.23;;;3.22;;
52740;SDS011;38634;52.138;9.912;2022-09-12T02:17:24;18.38;;;3.72;;
52740;SDS011;38634;52.138;9.912;2022-09-12T02:20:11;18.05;;;3.40;;
52740;SDS011;38634;52.138;9.912;2022-09-12T02:23:06;11.95;;;2.85;;
52740;SDS011;38634;52.138;9.912;2022-09-12T02:25:57;15.87;;;3.67;;
52740;SDS011;38634;52.138;9.912;2022-09-12T02:28:46;16.35;;;3.28;;
52740;SDS011;38634;52.138;9.912;2022-09-12T02:31:47;20.23;;;4.63;;
52740;SDS011;38634;52.138;9.912;2022-09-12T02:34:42;20.58;;;3.75;;
52740;SDS011;38634;52.138;9.912;2022-09-12T02:38:08;17.60;;;3.67;;
52740;SDS011;38634;52.138;9.912;2022-09-12T02:41:05;21.80;;;4.18;;
52740;SDS011;38634;52.138;9.912;2022-09-12T09:34:22;13.82;;;3.20;;
52740;SDS011;38634;52.138;9.912;2022-09-12T09:37:15;6.75;;;2.17;;
52740;SDS011;38634;52.138;9.912;2022-09-12T09:40:14;4.25;;;1.42;;
52740;SDS011;38634;52.138;9.912;2022-09-12T09:46:05;8.20;;;2.33;;
52740;SDS011;38634;52.138;9.912;2022-09-12T09:48:49;8.02;;;2.60;;
52740;SDS011;38634;52.138;9.912;2022-09-12T09:51:35;8.00;;;2.50;;
52740;SDS011;38634;52.138;9.912;2022-09-12T09:54:25;7.03;;;2.05;;
52740;SDS011;38634;52.138;9.912;2022-09-12T10:00:35;10.27;;;2.58;;
52740;SDS011;38634;52.138;9.912;2022-09-12T10:03:23;10.02;;;2.75;;
52740;SDS011;38634;52.138;9.912;2022-09-12T10:06:22;10.73;;;2.50;;
52740;SDS011;38634;52.138;9.912;2022-09-12T10:12:23;7.82;;;2.30;;
52740;SDS011;38634;52.138;9.912;2022-09-12T10:15:18;8.48;;;2.47;;
52740;SDS011;38634;52.138;9.912;2022-09-12T10:18:09;9.38;;;2.50;;
52740;SDS011;38634;52.138;9.912;2022-09-12T10:20:54;11.15;;;2.85;;
52740;SDS011;38634;52.138;9.912;2022-09-12T10:23:39;8.05;;;2.08;;
52740;SDS011;38634;52.138;9.912;2022-09-12T10:26:25;14.23;;;3.05;;
52740;SDS011;38634;52.138;9.912;2022-09-12T10:29:15;8.85;;;2.05;;
52740;SDS011;38634;52.138;9.912;2022-09-12T10:32:08;11.57;;;2.60;;
52740;SDS011;38634;52.138;9.912;2022-09-12T10:34:56;12.77;;;2.75;;
52740;SDS011;38634;52.138;9.912;2022-09-12T10:40:38;13.23;;;2.97;;
52740;SDS011;38634;52.138;9.912;2022-09-12T10:43:33;12.90;;;2.70;;
52740;SDS011;38634;52.138;9.912;2022-09-12T10:46:28;11.90;;;2.63;;
52740;SDS011;38634;52.138;9.912;2022-09-12T10:49:19;9.35;;;2.20;;
52740;SDS011;38634;52.138;9.912;2022-09-12T10:52:21;13.23;;;2.92;;
52740;SDS011;38634;52.138;9.912;2022-09-12T10:55:12;9.80;;;2.17;;
52740;SDS011;38634;52.138;9.912;2022-09-12T11:01:14;9.43;;;2.83;;
52740;SDS011;38634;52.138;9.912;2022-09-12T11:04:18;9.63;;;2.25;;
52740;SDS011;38634;52.138;9.912;2022-09-12T11:14:27;8.32;;;2.30;;
52740;SDS011;38634;52.138;9.912;2022-09-12T11:17:24;8.65;;;2.63;;
52740;SDS011;38634;52.138;9.912;2022-09-12T11:27:07;8.43;;;2.15;;
52740;SDS011;38634;52.138;9.912;2022-09-12T11:30:06;8.48;;;2.17;;
52740;SDS011;38634;52.138;9.912;2022-09-12T11:33:00;8.73;;;2.40;;
52740;SDS011;38634;52.138;9.912;2022-09-12T11:36:32;8.07;;;2.42;;
52740;SDS011;38634;52.138;9.912;2022-09-12T11:39:28;10.20;;;2.42;;
52740;SDS011;38634;52.138;9.912;2022-09-12T11:42:25;8.18;;;2.25;;
52740;SDS011;38634;52.138;9.912;2022-09-12T11:45:16;9.73;;;2.85;;
52740;SDS011;38634;52.138;9.912;2022-09-12T11:48:10;10.88;;;2.78;;
52740;SDS011;38634;52.138;9.912;2022-09-12T11:52:12;9.48;;;3.50;;
52740;SDS011;38634;52.138;9.912;2022-09-12T11:58:06;10.40;;;2.38;;
52740;SDS011;38634;52.138;9.912;2022-09-12T12:00:53;13.30;;;3.00;;
52740;SDS011;38634;52.138;9.912;2022-09-12T12:04:02;13.75;;;3.25;;
52740;SDS011;38634;52.138;9.912;2022-09-12T12:07:02;14.55;;;3.28;;
52740;SDS011;38634;52.138;9.912;2022-09-12T12:09:50;12.45;;;2.70;;
52740;SDS011;38634;52.138;9.912;2022-09-12T12:12:35;12.07;;;2.80;;
52740;SDS011;38634;52.138;9.912;2022-09-12T12:15:20;10.82;;;2.42;;
52740;SDS011;38634;52.138;9.912;2022-09-12T12:21:18;12.25;;;3.22;;
52740;SDS011;38634;52.138;9.912;2022-09-12T12:24:23;11.30;;;2.35;;
52740;SDS011;38634;52.138;9.912;2022-09-12T12:36:49;12.75;;;2.70;;
52740;SDS011;38634;52.138;9.912;2022-09-12T12:48:15;12.65;;;2.67;;
52740;SDS011;38634;52.138;9.912;2022-09-12T12:54:25;10.00;;;2.60;;
52740;SDS011;38634;52.138;9.912;2022-09-12T13:00:34;10.07;;;2.40;;
52740;SDS011;38634;52.138;9.912;2022-09-12T13:03:29;11.60;;;2.47;;
52740;SDS011;38634;52.138;9.912;2022-09-12T13:09:26;15.63;;;4.78;;
52740;SDS011;38634;52.138;9.912;2022-09-12T13:12:34;10.77;;;2.45;;
52740;SDS011;38634;52.138;9.912;2022-09-12T13:15:28;7.10;;;2.05;;
52740;SDS011;38634;52.138;9.912;2022-09-12T13:18:41;8.18;;;1.92;;
52740;SDS011;38634;52.138;9.912;2022-09-12T13:21:29;24.95;;;7.38;;
52740;SDS011;38634;52.138;9.912;2022-09-12T13:24:14;20.95;;;6.53;;
52740;SDS011;38634;52.138;9.912;2022-09-12T13:27:01;13.55;;;4.68;;
52740;SDS011;38634;52.138;9.912;2022-09-12T13:29:45;15.63;;;4.88;;
52740;SDS011;38634;52.138;9.912;2022-09-12T13:32:30;24.95;;;7.50;;
52740;SDS011;38634;52.138;9.912;2022-09-12T13:38:36;17.98;;;6.15;;
52740;SDS011;38634;52.138;9.912;2022-09-12T13:41:59;8.48;;;3.38;;
52740;SDS011;38634;52.138;9.912;2022-09-12T13:45:09;14.63;;;7.55;;
52740;SDS011;38634;52.138;9.912;2022-09-12T13:48:03;13.13;;;4.57;;
52740;SDS011;38634;52.138;9.912;2022-09-12T13:53:42;20.20;;;6.20;;
52740;SDS011;38634;52.138;9.912;2022-09-12T13:56:29;12.05;;;4.43;;
52740;SDS011;38634;52.138;9.912;2022-09-12T13:59:13;8.85;;;3.60;;
52740;SDS011;38634;52.138;9.912;2022-09-12T14:01:58;12.48;;;4.43;;
52740;SDS011;38634;52.138;9.912;2022-09-12T14:04:44;18.52;;;5.85;;
52740;SDS011;38634;52.138;9.912;2022-09-12T14:10:43;10.30;;;3.83;;
52740;SDS011;38634;52.138;9.912;2022-09-12T14:13:30;11.25;;;3.47;;
52740;SDS011;38634;52.138;9.912;2022-09-12T14:16:15;21.83;;;6.68;;
52740;SDS011;38634;52.138;9.912;2022-09-12T14:19:00;19.40;;;6.13;;
52740;SDS011;38634;52.138;9.912;2022-09-12T14:21:45;14.25;;;4.90;;
52740;SDS011;38634;52.138;9.912;2022-09-12T14:24:30;6.07;;;2.67;;
52740;SDS011;38634;52.138;9.912;2022-09-12T14:27:19;13.80;;;5.07;;
52740;SDS011;38634;52.138;9.912;2022-09-12T14:30:28;9.95;;;3.78;;
52740;SDS011;38634;52.138;9.912;2022-09-12T14:33:19;19.02;;;5.90;;
52740;SDS011;38634;52.138;9.912;2022-09-12T14:36:11;11.30;;;4.03;;
52740;SDS011;38634;52.138;9.912;2022-09-12T14:39:02;22.83;;;6.40;;
52740;SDS011;38634;52.138;9.912;2022-09-12T14:41:49;15.52;;;5.00;;
52740;SDS011;38634;52.138;9.912;2022-09-12T14:44:35;13.05;;;4.13;;
52740;SDS011;38634;52.138;9.912;2022-09-12T14:47:21;16.05;;;5.30;;
52740;SDS011;38634;52.138;9.912;2022-09-12T14:50:14;28.38;;;7.85;;
52740;SDS011;38634;52.138;9.912;2022-09-12T14:53:05;8.63;;;3.47;;
52740;SDS011;38634;52.138;9.912;2022-09-12T14:58:52;14.05;;;4.22;;
52740;SDS011;38634;52.138;9.912;2022-09-12T15:02:23;26.63;;;6.70;;
52740;SDS011;38634;52.138;9.912;2022-09-12T15:10:45;42.40;;;9.27;;
52740;SDS011;38634;52.138;9.912;2022-09-12T15:13:37;22.48;;;5.97;;
52740;SDS011;38634;52.138;9.912;2022-09-12T15:16:24;42.17;;;9.38;;
52740;SDS011;38634;52.138;9.912;2022-09-12T15:19:08;39.70;;;9.50;;
52740;SDS011;38634;52.138;9.912;2022-09-12T15:21:53;24.25;;;7.22;;
52740;SDS011;38634;52.138;9.912;2022-09-12T15:24:38;18.55;;;5.60;;
52740;SDS011;38634;52.138;9.912;2022-09-12T15:27:22;23.00;;;5.90;;
52740;SDS011;38634;52.138;9.912;2022-09-12T15:30:08;38.90;;;8.77;;
52740;SDS011;38634;52.138;9.912;2022-09-12T15:32:55;26.42;;;7.13;;
52740;SDS011;38634;52.138;9.912;2022-09-12T15:35:42;20.48;;;6.00;;
52740;SDS011;38634;52.138;9.912;2022-09-12T15:38:27;24.40;;;5.97;;
52740;SDS011;38634;52.138;9.912;2022-09-12T15:41:22;39.55;;;9.70;;
52740;SDS011;38634;52.138;9.912;2022-09-12T15:44:12;16.77;;;4.95;;
52740;SDS011;38634;52.138;9.912;2022-09-12T15:46:57;31.17;;;8.40;;
52740;SDS011;38634;52.138;9.912;2022-09-12T15:49:41;6.88;;;2.45;;
52740;SDS011;38634;52.138;9.912;2022-09-12T15:52:26;6.60;;;2.72;;
52740;SDS011;38634;52.138;9.912;2022-09-12T15:55:11;6.15;;;2.47;;
52740;SDS011;38634;52.138;9.912;2022-09-12T15:58:10;9.68;;;3.25;;
52740;SDS011;38634;52.138;9.912;2022-09-12T16:00:55;13.70;;;5.25;;
52740;SDS011;38634;52.138;9.912;2022-09-12T16:03:40;15.27;;;4.65;;
52740;SDS011;38634;52.138;9.912;2022-09-12T16:06:25;34.67;;;8.13;;
52740;SDS011;38634;52.138;9.912;2022-09-12T16:09:12;25.50;;;7.35;;
52740;SDS011;38634;52.138;9.912;2022-09-12T16:11:56;14.02;;;4.57;;
52740;SDS011;38634;52.138;9.912;2022-09-12T16:14:41;9.02;;;3.63;;
52740;SDS011;38634;52.138;9.912;2022-09-12T16:17:25;18.92;;;5.90;;
52740;SDS011;38634;52.138;9.912;2022-09-12T16:20:10;13.10;;;4.05;;
52740;SDS011;38634;52.138;9.912;2022-09-12T16:22:55;18.65;;;5.43;;
52740;SDS011;38634;52.138;9.912;2022-09-12T16:25:40;26.67;;;7.47;;
52740;SDS011;38634;52.138;9.912;2022-09-12T16:28:26;24.70;;;7.53;;
52740;SDS011;38634;52.138;9.912;2022-09-12T16:31:11;14.40;;;4.85;;
52740;SDS011;38634;52.138;9.912;2022-09-12T16:33:56;12.55;;;4.40;;
52740;SDS011;38634;52.138;9.912;2022-09-12T16:36:41;26.27;;;6.80;;
52740;SDS011;38634;52.138;9.912;2022-09-12T16:39:28;23.50;;;6.95;;
52740;SDS011;38634;52.138;9.912;2022-09-12T16:42:13;13.98;;;4.80;;
52740;SDS011;38634;52.138;9.912;2022-09-12T16:45:00;11.07;;;4.35;;
52740;SDS011;38634;52.138;9.912;2022-09-12T16:47:45;20.33;;;6.47;;
52740;SDS011;38634;52.138;9.912;2022-09-12T16:50:30;23.95;;;7.63;;
52740;SDS011;38634;52.138;9.912;2022-09-12T16:53:14;17.13;;;5.78;;
52740;SDS011;38634;52.138;9.912;2022-09-12T16:55:59;10.70;;;4.18;;
52740;SDS011;38634;52.138;9.912;2022-09-12T16:58:44;16.80;;;5.28;;
52740;SDS011;38634;52.138;9.912;2022-09-12T17:01:28;23.00;;;6.88;;
52740;SDS011;38634;52.138;9.912;2022-09-12T17:04:13;23.15;;;7.15;;
52740;SDS011;38634;52.138;9.912;2022-09-12T17:06:58;12.40;;;4.35;;
52740;SDS011;38634;52.138;9.912;2022-09-12T17:09:42;6.88;;;3.10;;
52740;SDS011;38634;52.138;9.912;2022-09-12T17:12:27;13.38;;;4.95;;
52740;SDS011;38634;52.138;9.912;2022-09-12T17:15:11;13.07;;;6.18;;
52740;SDS011;38634;52.138;9.912;2022-09-12T17:17:56;7.78;;;3.05;;
52740;SDS011;38634;52.138;9.912;2022-09-12T17:20:40;4.85;;;2.88;;
52740;SDS011;38634;52.138;9.912;2022-09-12T17:23:25;3.92;;;2.17;;
52740;SDS011;38634;52.138;9.912;2022-09-12T17:26:10;4.00;;;2.53;;
52740;SDS011;38634;52.138;9.912;2022-09-12T17:28:55;6.65;;;2.72;;
52740;SDS011;38634;52.138;9.912;2022-09-12T17:31:40;6.60;;;2.67;;
52740;SDS011;38634;52.138;9.912;2022-09-12T17:34:26;8.30;;;2.60;;
52740;SDS011;38634;52.138;9.912;2022-09-12T17:37:10;9.88;;;3.10;;
52740;SDS011;38634;52.138;9.912;2022-09-12T17:39:56;7.57;;;2.65;;
52740;SDS011;38634;52.138;9.912;2022-09-12T17:42:40;4.55;;;2.92;;
52740;SDS011;38634;52.138;9.912;2022-09-12T17:45:25;9.93;;;3.08;;
52740;SDS011;38634;52.138;9.912;2022-09-12T17:48:10;7.57;;;2.55;;
52740;SDS011;38634;52.138;9.912;2022-09-12T17:50:55;9.18;;;3.08;;
52740;SDS011;38634;52.138;9.912;2022-09-12T17:53:40;9.10;;;2.95;;
52740;SDS011;38634;52.138;9.912;2022-09-12T17:56:26;9.82;;;3.15;;
52740;SDS011;38634;52.138;9.912;2022-09-12T17:59:14;8.50;;;2.83;;
52740;SDS011;38634;52.138;9.912;2022-09-12T18:02:02;10.68;;;3.17;;
52740;SDS011;38634;52.138;9.912;2022-09-12T18:04:55;9.02;;;2.80;;
52740;SDS011;38634;52.138;9.912;2022-09-12T18:07:40;7.25;;;2.40;;
52740;SDS011;38634;52.138;9.912;2022-09-12T18:10:24;9.80;;;3.03;;
52740;SDS011;38634;52.138;9.912;2022-09-12T18:13:09;7.97;;;2.92;;
52740;SDS011;38634;52.138;9.912;2022-09-12T18:15:54;5.10;;;2.25;;
52740;SDS011;38634;52.138;9.912;2022-09-12T18:18:39;8.70;;;3.22;;
52740;SDS011;38634;52.138;9.912;2022-09-12T18:21:23;10.48;;;3.28;;
52740;SDS011;38634;52.138;9.912;2022-09-12T18:24:08;6.75;;;2.60;;
52740;SDS011;38634;52.138;9.912;2022-09-12T18:26:54;10.35;;;3.40;;
52740;SDS011;38634;52.138;9.912;2022-09-12T18:29:41;10.98;;;3.47;;
52740;SDS011;38634;52.138;9.912;2022-09-12T18:32:26;7.85;;;2.92;;
52740;SDS011;38634;52.138;9.912;2022-09-12T18:35:10;7.30;;;2.90;;
52740;SDS011;38634;52.138;9.912;2022-09-12T18:37:55;8.13;;;3.20;;
52740;SDS011;38634;52.138;9.912;2022-09-12T18:40:40;8.95;;;2.90;;
52740;SDS011;38634;52.138;9.912;2022-09-12T18:43:24;6.95;;;3.05;;
52740;SDS011;38634;52.138;9.912;2022-09-12T18:46:13;2.97;;;2.08;;
52740;SDS011;38634;52.138;9.912;2022-09-12T18:49:00;2.75;;;2.33;;
52740;SDS011;38634;52.138;9.912;2022-09-12T18:51:45;3.13;;;2.13;;
52740;SDS011;38634;52.138;9.912;2022-09-12T18:54:30;3.28;;;2.45;;
52740;SDS011;38634;52.138;9.912;2022-09-12T18:57:16;6.82;;;2.35;;
52740;SDS011;38634;52.138;9.912;2022-09-12T19:00:01;7.78;;;2.72;;
52740;SDS011;38634;52.138;9.912;2022-09-12T19:02:47;2.78;;;2.38;;
52740;SDS011;38634;52.138;9.912;2022-09-12T19:05:32;10.68;;;3.60;;
52740;SDS011;38634;52.138;9.912;2022-09-12T19:08:18;4.03;;;2.80;;
52740;SDS011;38634;52.138;9.912;2022-09-12T19:11:02;4.72;;;2.85;;
52740;SDS011;38634;52.138;9.912;2022-09-12T19:13:48;2.33;;;1.92;;
52740;SDS011;38634;52.138;9.912;2022-09-12T19:16:34;9.50;;;3.22;;
52740;SDS011;38634;52.138;9.912;2022-09-12T19:19:19;9.13;;;2.92;;
52740;SDS011;38634;52.138;9.912;2022-09-12T19:22:04;5.78;;;2.63;;
52740;SDS011;38634;52.138;9.912;2022-09-12T19:24:48;9.80;;;3.42;;
52740;SDS011;38634;52.138;9.912;2022-09-12T19:27:33;7.57;;;3.20;;
52740;SDS011;38634;52.138;9.912;2022-09-12T19:30:17;7.20;;;3.30;;
52740;SDS011;38634;52.138;9.912;2022-09-12T19:33:02;9.50;;;3.63;;
52740;SDS011;38634;52.138;9.912;2022-09-12T19:35:47;8.95;;;3.35;;
52740;SDS011;38634;52.138;9.912;2022-09-12T19:38:32;11.00;;;3.42;;
52740;SDS011;38634;52.138;9.912;2022-09-12T19:41:17;11.40;;;4.05;;
52740;SDS011;38634;52.138;9.912;2022-09-12T19:44:03;11.07;;;3.25;;
52740;SDS011;38634;52.138;9.912;2022-09-12T19:46:48;8.13;;;3.13;;
52740;SDS011;38634;52.138;9.912;2022-09-12T19:49:32;11.55;;;3.38;;
52740;SDS011;38634;52.138;9.912;2022-09-12T19:52:17;8.73;;;2.90;;
52740;SDS011;38634;52.138;9.912;2022-09-12T19:55:01;11.05;;;3.55;;
52740;SDS011;38634;52.138;9.912;2022-09-12T19:57:46;10.93;;;3.58;;
52740;SDS011;38634;52.138;9.912;2022-09-12T20:00:31;10.32;;;3.65;;
52740;SDS011;38634;52.138;9.912;2022-09-12T20:03:17;9.80;;;3.28;;
52740;SDS011;38634;52.138;9.912;2022-09-12T20:06:05;10.25;;;3.45;;
52740;SDS011;38634;52.138;9.912;2022-09-12T20:08:51;11.32;;;3.45;;
52740;SDS011;38634;52.138;9.912;2022-09-12T20:11:37;11.63;;;3.90;;
52740;SDS011;38634;52.138;9.912;2022-09-12T20:14:22;11.35;;;3.30;;
52740;SDS011;38634;52.138;9.912;2022-09-12T20:17:06;9.60;;;3.17;;
52740;SDS011;38634;52.138;9.912;2022-09-12T20:19:51;10.35;;;3.42;;
52740;SDS011;38634;52.138;9.912;2022-09-12T20:22:36;11.45;;;3.67;;
52740;SDS011;38634;52.138;9.912;2022-09-12T20:25:21;4.45;;;2.83;;
52740;SDS011;38634;52.138;9.912;2022-09-12T20:28:05;3.85;;;2.67;;
52740;SDS011;38634;52.138;9.912;2022-09-12T20:30:50;4.07;;;2.63;;
52740;SDS011;38634;52.138;9.912;2022-09-12T20:33:34;5.43;;;3.22;;
52740;SDS011;38634;52.138;9.912;2022-09-12T20:36:19;5.03;;;3.13;;
52740;SDS011;38634;52.138;9.912;2022-09-12T20:39:05;3.42;;;2.50;;
52740;SDS011;38634;52.138;9.912;2022-09-12T20:41:49;2.35;;;2.15;;
52740;SDS011;38634;52.138;9.912;2022-09-12T20:44:34;6.50;;;2.88;;
52740;SDS011;38634;52.138;9.912;2022-09-12T20:47:18;4.30;;;2.40;;
52740;SDS011;38634;52.138;9.912;2022-09-12T20:50:03;1.65;;;1.55;;
52740;SDS011;38634;52.138;9.912;2022-09-12T20:52:48;2.08;;;1.30;;
52740;SDS011;38634;52.138;9.912;2022-09-12T20:55:33;1.67;;;1.58;;
52740;SDS011;38634;52.138;9.912;2022-09-12T20:58:18;1.58;;;1.48;;
52740;SDS011;38634;52.138;9.912;2022-09-12T21:01:07;2.08;;;1.67;;
52740;SDS011;38634;52.138;9.912;2022-09-12T21:03:53;3.10;;;1.65;;
52740;SDS011;38634;52.138;9.912;2022-09-12T21:06:38;1.38;;;1.27;;
52740;SDS011;38634;52.138;9.912;2022-09-12T21:09:23;1.45;;;1.30;;
52740;SDS011;38634;52.138;9.912;2022-09-12T21:12:07;1.85;;;1.33;;
52740;SDS011;38634;52.138;9.912;2022-09-12T21:14:52;1.52;;;1.42;;
52740;SDS011;38634;52.138;9.912;2022-09-12T21:17:37;1.30;;;1.20;;
52740;SDS011;38634;52.138;9.912;2022-09-12T21:20:22;1.20;;;1.20;;
52740;SDS011;38634;52.138;9.912;2022-09-12T21:23:06;6.78;;;2.20;;
52740;SDS011;38634;52.138;9.912;2022-09-12T21:25:51;7.30;;;2.40;;
52740;SDS011;38634;52.138;9.912;2022-09-12T21:28:36;5.55;;;2.20;;
52740;SDS011;38634;52.138;9.912;2022-09-12T21:31:20;8.48;;;2.83;;
52740;SDS011;38634;52.138;9.912;2022-09-12T21:34:05;7.72;;;2.30;;
52740;SDS011;38634;52.138;9.912;2022-09-12T21:36:52;3.15;;;1.45;;
52740;SDS011;38634;52.138;9.912;2022-09-12T21:39:36;8.98;;;2.85;;
52740;SDS011;38634;52.138;9.912;2022-09-12T21:42:21;5.22;;;1.80;;
52740;SDS011;38634;52.138;9.912;2022-09-12T21:45:05;7.40;;;2.50;;
52740;SDS011;38634;52.138;9.912;2022-09-12T21:47:51;4.78;;;1.70;;
52740;SDS011;38634;52.138;9.912;2022-09-12T21:50:35;7.45;;;2.50;;
52740;SDS011;38634;52.138;9.912;2022-09-12T21:53:20;6.07;;;2.05;;
52740;SDS011;38634;52.138;9.912;2022-09-12T21:56:06;6.43;;;2.17;;
52740;SDS011;38634;52.138;9.912;2022-09-12T21:58:51;7.40;;;2.20;;
52740;SDS011;38634;52.138;9.912;2022-09-12T22:01:36;6.75;;;2.50;;
52740;SDS011;38634;52.138;9.912;2022-09-12T22:04:20;7.38;;;2.58;;
52740;SDS011;38634;52.138;9.912;2022-09-12T22:07:05;6.85;;;2.10;;
52740;SDS011;38634;52.138;9.912;2022-09-12T22:09:50;5.93;;;2.25;;
52740;SDS011;38634;52.138;9.912;2022-09-12T22:12:35;7.18;;;2.30;;
52740;SDS011;38634;52.138;9.912;2022-09-12T22:15:19;8.77;;;2.45;;
52740;SDS011;38634;52.138;9.912;2022-09-12T22:18:04;6.15;;;2.15;;
52740;SDS011;38634;52.138;9.912;2022-09-12T22:20:56;7.88;;;2.70;;
52740;SDS011;38634;52.138;9.912;2022-09-12T22:24:02;8.55;;;2.55;;
52740;SDS011;38634;52.138;9.912;2022-09-12T22:27:06;7.32;;;2.55;;
52740;SDS011;38634;52.138;9.912;2022-09-12T22:29:51;7.80;;;2.40;;
52740;SDS011;38634;52.138;9.912;2022-09-12T22:32:36;6.63;;;2.65;;
52740;SDS011;38634;52.138;9.912;2022-09-12T22:35:20;7.22;;;2.47;;
52740;SDS011;38634;52.138;9.912;2022-09-12T22:38:05;5.88;;;2.38;;
52740;SDS011;38634;52.138;9.912;2022-09-12T22:40:50;4.00;;;1.80;;
52740;SDS011;38634;52.138;9.912;2022-09-12T22:43:35;6.32;;;2.55;;
52740;SDS011;38634;52.138;9.912;2022-09-12T22:46:19;5.63;;;2.08;;
52740;SDS011;38634;52.138;9.912;2022-09-12T22:49:05;2.65;;;2.05;;
52740;SDS011;38634;52.138;9.912;2022-09-12T22:51:50;2.85;;;1.88;;
52740;SDS011;38634;52.138;9.912;2022-09-12T22:54:34;2.45;;;1.73;;
52740;SDS011;38634;52.138;9.912;2022-09-12T22:57:20;2.45;;;1.80;;
52740;SDS011;38634;52.138;9.912;2022-09-12T23:00:05;6.80;;;2.60;;
52740;SDS011;38634;52.138;9.912;2022-09-12T23:02:53;7.63;;;2.50;;
52740;SDS011;38634;52.138;9.912;2022-09-12T23:05:38;7.07;;;2.42;;
52740;SDS011;38634;52.138;9.912;2022-09-12T23:08:22;6.32;;;1.98;;
52740;SDS011;38634;52.138;9.912;2022-09-12T23:11:11;6.30;;;2.45;;
52740;SDS011;38634;52.138;9.912;2022-09-12T23:13:57;6.10;;;2.20;;
52740;SDS011;38634;52.138;9.912;2022-09-12T23:16:42;3.72;;;1.65;;
52740;SDS011;38634;52.138;9.912;2022-09-12T23:19:26;4.55;;;2.08;;
52740;SDS011;38634;52.138;9.912;2022-09-12T23:22:11;2.65;;;1.52;;
52740;SDS011;38634;52.138;9.912;2022-09-12T23:24:55;1.88;;;1.55;;
52740;SDS011;38634;52.138;9.912;2022-09-12T23:27:40;3.17;;;2.00;;
52740;SDS011;38634;52.138;9.912;2022-09-12T23:30:26;3.22;;;1.95;;
52740;SDS011;38634;52.138;9.912;2022-09-12T23:33:10;2.28;;;1.70;;
52740;SDS011;38634;52.138;9.912;2022-09-12T23:35:59;3.35;;;2.00;;
52740;SDS011;38634;52.138;9.912;2022-09-12T23:38:49;4.45;;;2.38;;
52740;SDS011;38634;52.138;9.912;2022-09-12T23:41:34;3.20;;;2.30;;
52740;SDS011;38634;52.138;9.912;2022-09-12T23:44:19;2.83;;;1.85;;
52740;SDS011;38634;52.138;9.912;2022-09-12T23:47:03;3.33;;;2.22;;
52740;SDS011;38634;52.138;9.912;2022-09-12T23:49:48;3.97;;;2.13;;
52740;SDS011;38634;52.138;9.912;2022-09-12T23:52:32;2.58;;;1.63;;
52740;SDS011;38634;52.138;9.912;2022-09-12T23:55:17;3.00;;;1.88;;
52740;SDS011;38634;52.138;9.912;2022-09-12T23:58:02;2.95;;;2.00;;
